createdAt,value
2019-03-09T00:00:52.440Z,11.44
2019-03-09T00:02:00.250Z,11.45
2019-03-09T00:03:05.504Z,11.44
2019-03-09T00:04:16.594Z,11.45
2019-03-09T00:05:21.587Z,11.46
2019-03-09T00:06:27.045Z,11.48
2019-03-09T00:07:32.404Z,11.49
2019-03-09T00:08:37.587Z,11.48
2019-03-09T00:09:42.540Z,11.50
2019-03-09T00:10:47.650Z,11.52
2019-03-09T00:11:52.719Z,11.53
2019-03-09T00:12:58.544Z,11.55
2019-03-09T00:14:03.900Z,11.54
2019-03-09T00:15:09.235Z,11.54
2019-03-09T00:16:14.971Z,11.54
2019-03-09T00:17:20.182Z,11.54
2019-03-09T00:18:25.167Z,11.55
2019-03-09T00:19:30.217Z,11.56
2019-03-09T00:20:35.307Z,11.55
2019-03-09T00:21:40.622Z,11.56
2019-03-09T00:22:48.443Z,11.55
2019-03-09T00:24:10.895Z,11.55
2019-03-09T00:25:23.381Z,11.54
2019-03-09T00:26:42.302Z,11.53
2019-03-09T00:28:01.793Z,11.54
2019-03-09T00:29:10.968Z,11.52
2019-03-09T00:30:29.490Z,11.52
2019-03-09T00:31:38.265Z,11.51
2019-03-09T00:32:43.419Z,11.50
2019-03-09T00:33:48.616Z,11.50
2019-03-09T00:34:53.663Z,11.47
2019-03-09T00:35:58.994Z,11.45
2019-03-09T00:37:04.059Z,11.41
2019-03-09T00:38:09.345Z,11.37
2019-03-09T00:39:17.631Z,11.34
2019-03-09T00:40:22.934Z,11.31
2019-03-09T00:41:28.020Z,11.28
2019-03-09T00:42:33.201Z,11.25
2019-03-09T00:43:38.248Z,11.23
2019-03-09T00:44:43.199Z,11.22
2019-03-09T00:45:48.472Z,11.22
2019-03-09T00:46:53.716Z,11.21
2019-03-09T00:47:58.908Z,11.20
2019-03-09T00:49:03.950Z,11.19
2019-03-09T00:50:09.679Z,11.20
2019-03-09T00:51:14.825Z,11.19
2019-03-09T00:52:19.944Z,11.18
2019-03-09T00:53:24.991Z,11.14
2019-03-09T00:54:30.512Z,11.11
2019-03-09T00:55:35.700Z,11.06
2019-03-09T00:56:40.991Z,11.04
2019-03-09T00:57:46.452Z,11.02
2019-03-09T00:58:51.511Z,10.99
2019-03-09T00:59:58.087Z,10.96
2019-03-09T01:01:03.221Z,10.89
2019-03-09T01:02:08.467Z,10.89
2019-03-09T01:03:13.908Z,10.94
2019-03-09T01:04:19.598Z,10.91
2019-03-09T01:05:24.706Z,10.89
2019-03-09T01:06:29.844Z,10.89
2019-03-09T01:07:35.113Z,10.87
2019-03-09T01:08:40.259Z,10.76
2019-03-09T01:09:45.314Z,10.76
2019-03-09T01:10:50.408Z,10.79
2019-03-09T01:11:55.550Z,10.78
2019-03-09T01:13:00.955Z,10.77
2019-03-09T01:14:06.430Z,10.75
2019-03-09T01:15:11.853Z,10.73
2019-03-09T01:16:16.962Z,10.68
2019-03-09T01:17:22.034Z,10.68
2019-03-09T01:18:27.085Z,10.69
2019-03-09T01:19:32.433Z,10.69
2019-03-09T01:20:37.518Z,10.70
2019-03-09T01:21:42.575Z,10.68
2019-03-09T01:22:47.762Z,10.68
2019-03-09T01:23:52.926Z,10.68
2019-03-09T01:24:58.032Z,10.68
2019-03-09T01:26:03.135Z,10.68
2019-03-09T01:27:08.362Z,10.68
2019-03-09T01:28:13.495Z,10.67
2019-03-09T01:29:18.530Z,10.66
2019-03-09T01:30:24.083Z,10.65
2019-03-09T01:31:29.401Z,10.62
2019-03-09T01:32:34.754Z,10.56
2019-03-09T01:33:39.891Z,10.56
2019-03-09T01:34:45.277Z,10.58
2019-03-09T01:35:50.443Z,10.56
2019-03-09T01:36:55.573Z,10.55
2019-03-09T01:38:00.739Z,10.55
2019-03-09T01:39:07.076Z,10.56
2019-03-09T01:40:12.494Z,10.55
2019-03-09T01:41:17.638Z,10.55
2019-03-09T01:42:22.819Z,10.56
2019-03-09T01:43:27.861Z,10.55
2019-03-09T01:44:33.020Z,10.54
2019-03-09T01:45:38.282Z,10.54
2019-03-09T01:46:43.359Z,10.54
2019-03-09T01:47:48.530Z,10.53
2019-03-09T01:48:53.842Z,10.54
2019-03-09T01:49:59.188Z,10.54
2019-03-09T01:51:04.342Z,10.55
2019-03-09T01:52:09.503Z,10.56
2019-03-09T01:53:14.582Z,10.57
2019-03-09T01:54:19.695Z,10.60
2019-03-09T01:55:24.707Z,10.61
2019-03-09T01:56:29.851Z,10.63
2019-03-09T01:57:35.512Z,10.65
2019-03-09T01:58:40.673Z,10.62
2019-03-09T01:59:46.104Z,10.67
2019-03-09T02:00:51.375Z,10.68
2019-03-09T02:01:56.698Z,10.68
2019-03-09T02:03:01.887Z,10.66
2019-03-09T02:04:06.995Z,10.62
2019-03-09T02:05:12.535Z,10.58
2019-03-09T02:06:17.703Z,10.54
2019-03-09T02:07:23.092Z,10.54
2019-03-09T02:08:28.141Z,10.51
2019-03-09T02:09:33.182Z,10.51
2019-03-09T02:10:38.311Z,10.57
2019-03-09T02:11:43.331Z,10.56
2019-03-09T02:12:48.452Z,10.50
2019-03-09T02:13:53.607Z,10.52
2019-03-09T02:14:58.621Z,10.52
2019-03-09T02:16:04.055Z,10.58
2019-03-09T02:17:09.339Z,10.55
2019-03-09T02:18:14.820Z,10.59
2019-03-09T02:19:20.120Z,10.62
2019-03-09T02:20:25.614Z,10.60
2019-03-09T02:21:30.652Z,10.59
2019-03-09T02:22:35.709Z,10.61
2019-03-09T02:23:41.152Z,10.61
2019-03-09T02:24:46.680Z,10.58
2019-03-09T02:25:51.713Z,10.55
2019-03-09T02:26:56.837Z,10.55
2019-03-09T02:28:01.851Z,10.55
2019-03-09T02:29:07.017Z,10.56
2019-03-09T02:30:12.411Z,10.58
2019-03-09T02:31:17.443Z,10.61
2019-03-09T02:32:23.093Z,10.62
2019-03-09T02:33:28.413Z,10.62
2019-03-09T02:34:33.481Z,10.62
2019-03-09T02:35:38.601Z,10.62
2019-03-09T02:36:43.879Z,10.62
2019-03-09T02:37:49.106Z,10.62
2019-03-09T02:39:00.933Z,10.61
2019-03-09T02:40:09.762Z,10.61
2019-03-09T02:41:14.961Z,10.62
2019-03-09T02:42:20.011Z,10.62
2019-03-09T02:43:26.128Z,10.57
2019-03-09T02:44:31.200Z,10.57
2019-03-09T02:45:36.604Z,10.53
2019-03-09T02:46:41.973Z,10.56
2019-03-09T02:47:47.456Z,10.56
2019-03-09T02:48:52.511Z,10.53
2019-03-09T02:49:57.531Z,10.56
2019-03-09T02:51:02.554Z,10.59
2019-03-09T02:52:07.649Z,10.59
2019-03-09T02:53:12.730Z,10.59
2019-03-09T02:54:17.771Z,10.53
2019-03-09T02:55:22.853Z,10.54
2019-03-09T02:56:28.109Z,10.52
2019-03-09T02:57:33.083Z,10.52
2019-03-09T02:58:38.190Z,10.45
2019-03-09T02:59:43.570Z,10.45
2019-03-09T03:00:52.936Z,10.52
2019-03-09T03:02:12.228Z,10.51
2019-03-09T03:03:17.473Z,10.52
2019-03-09T03:04:22.920Z,10.53
2019-03-09T03:05:28.236Z,10.53
2019-03-09T03:06:33.353Z,10.57
2019-03-09T03:07:38.477Z,10.59
2019-03-09T03:08:43.793Z,10.58
2019-03-09T03:09:49.198Z,10.59
2019-03-09T03:10:54.188Z,10.57
2019-03-09T03:11:59.293Z,10.57
2019-03-09T03:13:04.723Z,10.59
2019-03-09T03:14:09.925Z,10.60
2019-03-09T03:15:28.212Z,10.59
2019-03-09T03:16:33.392Z,10.58
2019-03-09T03:17:38.556Z,10.59
2019-03-09T03:18:43.771Z,10.58
2019-03-09T03:19:48.929Z,10.58
2019-03-09T03:20:54.119Z,10.58
2019-03-09T03:21:59.232Z,10.60
2019-03-09T03:23:04.683Z,10.61
2019-03-09T03:24:09.686Z,10.60
2019-03-09T03:25:15.048Z,10.59
2019-03-09T03:26:20.211Z,10.56
2019-03-09T03:27:25.490Z,10.56
2019-03-09T03:28:30.565Z,10.54
2019-03-09T03:29:35.673Z,10.54
2019-03-09T03:30:41.032Z,10.53
2019-03-09T03:31:46.168Z,10.53
2019-03-09T03:32:52.760Z,10.52
2019-03-09T03:33:57.871Z,10.53
2019-03-09T03:35:03.300Z,10.53
2019-03-09T03:36:08.561Z,10.53
2019-03-09T03:37:13.960Z,10.52
2019-03-09T03:38:19.406Z,10.53
2019-03-09T03:39:24.474Z,10.55
2019-03-09T03:40:29.805Z,10.53
2019-03-09T03:41:34.804Z,10.53
2019-03-09T03:42:39.920Z,10.51
2019-03-09T03:43:45.196Z,10.49
2019-03-09T03:44:50.404Z,10.47
2019-03-09T03:45:55.740Z,10.47
2019-03-09T03:47:01.171Z,10.49
2019-03-09T03:48:06.324Z,10.52
2019-03-09T03:49:11.499Z,10.53
2019-03-09T03:50:16.624Z,10.53
2019-03-09T03:51:21.680Z,10.51
2019-03-09T03:52:26.768Z,10.49
2019-03-09T03:53:32.197Z,10.50
2019-03-09T03:54:37.343Z,10.49
2019-03-09T03:55:42.501Z,10.49
2019-03-09T03:56:47.764Z,10.50
2019-03-09T03:57:52.950Z,10.51
2019-03-09T03:58:58.102Z,10.50
2019-03-09T04:00:03.306Z,10.48
2019-03-09T04:01:08.431Z,10.46
2019-03-09T04:02:13.685Z,10.45
2019-03-09T04:03:18.885Z,10.45
2019-03-09T04:04:24.033Z,10.46
2019-03-09T04:05:29.213Z,10.47
2019-03-09T04:06:34.450Z,10.45
2019-03-09T04:07:40.062Z,10.43
2019-03-09T04:08:45.238Z,10.42
2019-03-09T04:09:50.724Z,10.42
2019-03-09T04:10:55.767Z,10.41
2019-03-09T04:12:00.917Z,10.39
2019-03-09T04:13:06.016Z,10.39
2019-03-09T04:14:11.312Z,10.42
2019-03-09T04:15:16.496Z,10.42
2019-03-09T04:16:21.815Z,10.45
2019-03-09T04:17:26.899Z,10.46
2019-03-09T04:18:31.926Z,10.48
2019-03-09T04:19:37.627Z,10.48
2019-03-09T04:20:42.736Z,10.47
2019-03-09T04:21:48.072Z,10.48
2019-03-09T04:22:53.397Z,10.47
2019-03-09T04:23:58.520Z,10.47
2019-03-09T04:25:03.799Z,10.47
2019-03-09T04:26:08.920Z,10.44
2019-03-09T04:27:14.011Z,10.41
2019-03-09T04:28:19.188Z,10.44
2019-03-09T04:29:24.327Z,10.46
2019-03-09T04:30:29.457Z,10.49
2019-03-09T04:31:34.577Z,10.48
2019-03-09T04:32:39.765Z,10.46
2019-03-09T04:33:44.894Z,10.46
2019-03-09T04:34:50.319Z,10.47
2019-03-09T04:35:55.680Z,10.45
2019-03-09T04:37:01.858Z,10.46
2019-03-09T04:38:07.001Z,10.45
2019-03-09T04:39:12.350Z,10.47
2019-03-09T04:40:17.549Z,10.46
2019-03-09T04:41:22.669Z,10.47
2019-03-09T04:42:27.730Z,10.49
2019-03-09T04:43:32.727Z,10.48
2019-03-09T04:44:37.989Z,10.49
2019-03-09T04:45:43.515Z,10.52
2019-03-09T04:46:48.923Z,10.52
2019-03-09T04:47:54.100Z,10.53
2019-03-09T04:48:59.394Z,10.55
2019-03-09T04:50:04.582Z,10.57
2019-03-09T04:51:09.688Z,10.59
2019-03-09T04:52:14.721Z,10.61
2019-03-09T04:53:19.919Z,10.63
2019-03-09T04:54:24.994Z,10.64
2019-03-09T04:55:30.119Z,10.65
2019-03-09T04:56:35.239Z,10.67
2019-03-09T04:57:40.473Z,10.69
2019-03-09T04:58:45.450Z,10.69
2019-03-09T04:59:50.810Z,10.71
2019-03-09T05:00:56.174Z,10.73
2019-03-09T05:02:01.129Z,10.76
2019-03-09T05:03:06.079Z,10.79
2019-03-09T05:04:43.384Z,10.81
2019-03-09T05:05:48.486Z,10.82
2019-03-09T05:06:53.548Z,10.85
2019-03-09T05:08:37.663Z,10.84
2019-03-09T05:10:10.717Z,10.84
2019-03-09T05:11:19.406Z,10.85
2019-03-09T05:12:24.419Z,10.86
2019-03-09T05:13:32.906Z,10.86
2019-03-09T05:14:37.895Z,10.86
2019-03-09T05:15:43.118Z,10.86
2019-03-09T05:16:48.224Z,10.87
2019-03-09T05:17:53.516Z,10.89
2019-03-09T05:19:00.884Z,10.88
2019-03-09T05:20:06.284Z,10.91
2019-03-09T05:21:11.371Z,10.91
2019-03-09T05:22:16.391Z,10.95
2019-03-09T05:23:21.390Z,10.97
2019-03-09T05:24:26.379Z,10.97
2019-03-09T05:25:31.451Z,10.98
2019-03-09T05:26:36.889Z,10.99
2019-03-09T05:27:42.050Z,10.99
2019-03-09T05:28:47.121Z,10.99
2019-03-09T05:29:52.168Z,10.98
2019-03-09T05:30:57.393Z,10.99
2019-03-09T05:32:04.565Z,11.01
2019-03-09T05:33:09.927Z,11.02
2019-03-09T05:34:15.202Z,11.04
2019-03-09T05:35:20.472Z,11.06
2019-03-09T05:36:25.585Z,11.07
2019-03-09T05:37:30.689Z,11.08
2019-03-09T05:38:35.685Z,11.08
2019-03-09T05:39:41.052Z,11.11
2019-03-09T05:40:46.306Z,11.12
2019-03-09T05:41:51.340Z,11.13
2019-03-09T05:42:56.596Z,11.13
2019-03-09T05:44:02.035Z,11.13
2019-03-09T05:45:07.355Z,11.13
2019-03-09T05:46:12.292Z,11.12
2019-03-09T05:47:17.440Z,11.11
2019-03-09T05:48:22.830Z,11.11
2019-03-09T05:49:27.876Z,11.08
2019-03-09T05:50:33.273Z,11.08
2019-03-09T05:51:38.818Z,11.06
2019-03-09T05:52:44.391Z,11.04
2019-03-09T05:53:49.460Z,11.03
2019-03-09T05:54:54.573Z,11.01
2019-03-09T05:55:59.966Z,10.97
2019-03-09T05:57:05.098Z,10.95
2019-03-09T05:58:10.209Z,10.94
2019-03-09T05:59:15.177Z,10.92
2019-03-09T06:00:20.320Z,10.91
2019-03-09T06:01:25.529Z,10.82
2019-03-09T06:02:30.645Z,10.82
2019-03-09T06:03:36.134Z,10.87
2019-03-09T06:04:41.467Z,10.85
2019-03-09T06:05:55.046Z,10.82
2019-03-09T06:07:00.110Z,10.83
2019-03-09T06:08:05.590Z,10.84
2019-03-09T06:09:10.546Z,10.84
2019-03-09T06:10:15.550Z,10.85
2019-03-09T06:11:20.877Z,10.84
2019-03-09T06:12:25.922Z,10.83
2019-03-09T06:13:30.918Z,10.83
2019-03-09T06:14:36.125Z,10.82
2019-03-09T06:15:41.356Z,10.82
2019-03-09T06:16:46.471Z,10.81
2019-03-09T06:17:51.537Z,10.80
2019-03-09T06:18:56.506Z,10.80
2019-03-09T06:20:01.853Z,10.81
2019-03-09T06:21:07.114Z,10.81
2019-03-09T06:22:12.202Z,10.82
2019-03-09T06:23:17.306Z,10.83
2019-03-09T06:24:22.543Z,10.85
2019-03-09T06:25:27.676Z,10.87
2019-03-09T06:26:32.631Z,10.88
2019-03-09T06:27:37.750Z,10.88
2019-03-09T06:28:42.718Z,10.90
2019-03-09T06:29:47.825Z,10.90
2019-03-09T06:30:53.497Z,10.91
2019-03-09T06:32:41.340Z,10.93
2019-03-09T06:33:48.024Z,10.89
2019-03-09T06:34:53.225Z,10.95
2019-03-09T06:36:48.327Z,10.97
2019-03-09T06:38:02.593Z,11.00
2019-03-09T06:39:40.098Z,11.05
2019-03-09T06:40:45.108Z,11.07
2019-03-09T06:42:00.812Z,11.12
2019-03-09T06:43:05.904Z,11.14
2019-03-09T06:44:11.184Z,11.17
2019-03-09T06:45:17.733Z,11.18
2019-03-09T06:46:23.074Z,11.20
2019-03-09T06:47:28.444Z,11.26
2019-03-09T06:48:33.925Z,11.26
2019-03-09T06:49:39.827Z,11.29
2019-03-09T06:50:45.365Z,11.30
2019-03-09T06:51:51.222Z,11.33
2019-03-09T06:52:57.035Z,11.35
2019-03-09T06:54:02.075Z,11.37
2019-03-09T06:55:08.564Z,11.40
2019-03-09T06:56:13.669Z,11.40
2019-03-09T06:57:19.425Z,11.42
2019-03-09T06:58:24.628Z,11.43
2019-03-09T06:59:29.624Z,11.44
2019-03-09T07:00:37.349Z,11.46
2019-03-09T07:01:42.658Z,11.46
2019-03-09T07:02:48.008Z,11.48
2019-03-09T07:03:53.342Z,11.48
2019-03-09T07:04:58.643Z,11.50
2019-03-09T07:06:03.919Z,11.52
2019-03-09T07:07:09.279Z,11.53
2019-03-09T07:08:14.526Z,11.54
2019-03-09T07:09:20.076Z,11.53
2019-03-09T07:10:25.501Z,11.53
2019-03-09T07:11:31.182Z,11.53
2019-03-09T07:12:36.752Z,11.53
2019-03-09T07:13:52.146Z,11.54
2019-03-09T07:15:45.044Z,11.55
2019-03-09T07:16:50.248Z,11.57
2019-03-09T07:18:03.727Z,11.58
2019-03-09T07:19:09.264Z,11.57
2019-03-09T07:20:14.573Z,11.57
2019-03-09T07:21:20.136Z,11.57
2019-03-09T07:22:25.418Z,11.59
2019-03-09T07:23:30.768Z,11.59
2019-03-09T07:24:35.774Z,11.61
2019-03-09T07:25:40.863Z,11.62
2019-03-09T07:26:46.280Z,11.62
2019-03-09T07:28:02.308Z,11.61
2019-03-09T07:29:07.673Z,11.60
2019-03-09T07:30:15.344Z,11.62
2019-03-09T07:31:20.960Z,11.62
2019-03-09T07:32:26.324Z,11.64
2019-03-09T07:33:31.524Z,11.64
2019-03-09T07:34:36.659Z,11.65
2019-03-09T07:35:41.723Z,11.66
2019-03-09T07:36:46.890Z,11.68
2019-03-09T07:37:52.002Z,11.69
2019-03-09T07:38:57.441Z,11.70
2019-03-09T07:40:02.559Z,11.72
2019-03-09T07:41:07.584Z,11.74
2019-03-09T07:42:12.686Z,11.74
2019-03-09T07:43:17.732Z,11.75
2019-03-09T07:44:22.836Z,11.78
2019-03-09T07:45:28.005Z,11.80
2019-03-09T07:46:33.190Z,11.84
2019-03-09T07:47:38.271Z,11.83
2019-03-09T07:48:43.700Z,11.85
2019-03-09T07:49:48.792Z,11.86
2019-03-09T07:50:54.180Z,11.86
2019-03-09T07:51:59.217Z,11.85
2019-03-09T07:53:04.357Z,11.85
2019-03-09T07:54:09.448Z,11.86
2019-03-09T07:55:14.974Z,11.89
2019-03-09T07:56:20.036Z,11.91
2019-03-09T07:57:25.351Z,11.92
2019-03-09T07:58:30.331Z,11.94
2019-03-09T07:59:35.339Z,11.95
2019-03-09T08:00:40.405Z,11.96
2019-03-09T08:01:45.475Z,11.96
2019-03-09T08:02:50.680Z,11.98
2019-03-09T08:03:55.791Z,12.01
2019-03-09T08:05:01.029Z,12.05
2019-03-09T08:06:06.163Z,12.07
2019-03-09T08:07:11.405Z,12.09
2019-03-09T08:08:16.757Z,12.09
2019-03-09T08:09:21.749Z,12.09
2019-03-09T08:10:27.131Z,12.12
2019-03-09T08:11:32.302Z,12.12
2019-03-09T08:12:37.405Z,12.17
2019-03-09T08:13:44.345Z,12.19
2019-03-09T08:14:49.540Z,12.21
2019-03-09T08:15:54.551Z,12.23
2019-03-09T08:16:59.542Z,12.24
2019-03-09T08:18:04.644Z,12.26
2019-03-09T08:19:09.691Z,12.27
2019-03-09T08:20:16.436Z,12.29
2019-03-09T08:21:21.757Z,12.28
2019-03-09T08:22:26.811Z,12.27
2019-03-09T08:23:31.952Z,12.28
2019-03-09T08:24:36.959Z,12.30
2019-03-09T08:25:42.065Z,12.31
2019-03-09T08:26:47.242Z,12.33
2019-03-09T08:27:52.811Z,12.34
2019-03-09T08:28:58.160Z,12.35
2019-03-09T08:30:03.414Z,12.37
2019-03-09T08:31:08.650Z,12.40
2019-03-09T08:32:14.019Z,12.42
2019-03-09T08:33:19.010Z,12.44
2019-03-09T08:34:24.084Z,12.45
2019-03-09T08:35:29.122Z,12.46
2019-03-09T08:36:35.141Z,12.47
2019-03-09T08:37:40.322Z,12.47
2019-03-09T08:38:45.379Z,12.48
2019-03-09T08:39:50.382Z,12.49
2019-03-09T08:40:55.542Z,12.50
2019-03-09T08:42:00.851Z,12.51
2019-03-09T08:43:05.969Z,12.53
2019-03-09T08:44:11.072Z,12.53
2019-03-09T08:45:17.200Z,12.54
2019-03-09T08:46:22.292Z,12.56
2019-03-09T08:47:27.538Z,12.57
2019-03-09T08:48:32.913Z,12.56
2019-03-09T08:49:37.947Z,12.58
2019-03-09T08:50:43.364Z,12.59
2019-03-09T08:51:48.756Z,12.57
2019-03-09T08:52:53.914Z,12.57
2019-03-09T08:53:59.090Z,12.58
2019-03-09T08:55:04.640Z,12.59
2019-03-09T08:56:09.631Z,12.61
2019-03-09T08:57:14.885Z,12.62
2019-03-09T08:58:20.259Z,12.64
2019-03-09T08:59:25.344Z,12.66
2019-03-09T09:00:32.131Z,12.65
2019-03-09T09:01:37.346Z,12.67
2019-03-09T09:02:42.424Z,12.70
2019-03-09T09:03:47.518Z,12.73
2019-03-09T09:04:52.645Z,12.75
2019-03-09T09:05:58.484Z,12.76
2019-03-09T09:07:03.475Z,12.76
2019-03-09T09:08:08.527Z,12.76
2019-03-09T09:09:13.822Z,12.78
2019-03-09T09:10:18.955Z,12.80
2019-03-09T09:11:23.963Z,12.82
2019-03-09T09:12:29.047Z,12.83
2019-03-09T09:13:34.346Z,12.84
2019-03-09T09:14:39.380Z,12.86
2019-03-09T09:15:44.449Z,12.89
2019-03-09T09:16:49.818Z,12.91
2019-03-09T09:17:54.889Z,12.92
2019-03-09T09:18:59.956Z,12.91
2019-03-09T09:20:05.842Z,12.91
2019-03-09T09:21:10.999Z,12.92
2019-03-09T09:22:16.161Z,12.93
2019-03-09T09:23:21.530Z,12.93
2019-03-09T09:24:26.657Z,12.93
2019-03-09T09:25:31.610Z,12.91
2019-03-09T09:26:37.059Z,12.92
2019-03-09T09:27:42.263Z,12.91
2019-03-09T09:28:47.353Z,12.91
2019-03-09T09:29:52.780Z,12.91
2019-03-09T09:30:58.302Z,12.92
2019-03-09T09:32:03.426Z,12.93
2019-03-09T09:33:08.544Z,12.92
2019-03-09T09:34:13.577Z,12.94
2019-03-09T09:35:18.932Z,12.95
2019-03-09T09:36:24.693Z,12.96
2019-03-09T09:37:29.920Z,12.95
2019-03-09T09:38:34.996Z,12.96
2019-03-09T09:39:40.031Z,12.97
2019-03-09T09:40:45.249Z,13.01
2019-03-09T09:41:50.655Z,13.03
2019-03-09T09:42:55.859Z,13.03
2019-03-09T09:44:00.964Z,13.06
2019-03-09T09:45:07.027Z,13.10
2019-03-09T09:46:12.231Z,13.10
2019-03-09T09:47:17.392Z,13.10
2019-03-09T09:48:22.817Z,13.08
2019-03-09T09:49:27.952Z,13.08
2019-03-09T09:50:33.109Z,13.10
2019-03-09T09:51:38.198Z,13.10
2019-03-09T09:52:43.394Z,13.10
2019-03-09T09:53:48.487Z,13.12
2019-03-09T09:54:53.855Z,13.13
2019-03-09T09:55:59.118Z,13.16
2019-03-09T09:57:04.149Z,13.17
2019-03-09T09:58:09.264Z,13.18
2019-03-09T09:59:14.679Z,13.18
2019-03-09T10:00:24.444Z,13.21
2019-03-09T10:01:29.558Z,13.24
2019-03-09T10:02:34.647Z,13.26
2019-03-09T10:03:40.331Z,13.29
2019-03-09T10:04:45.436Z,13.30
2019-03-09T10:05:50.633Z,13.32
2019-03-09T10:06:55.608Z,13.35
2019-03-09T10:08:00.664Z,13.37
2019-03-09T10:09:07.020Z,13.38
2019-03-09T10:10:13.867Z,13.40
2019-03-09T10:11:19.265Z,13.42
2019-03-09T10:12:24.341Z,13.46
2019-03-09T10:13:29.470Z,13.47
2019-03-09T10:14:34.576Z,13.48
2019-03-09T10:15:39.854Z,13.49
2019-03-09T10:16:44.899Z,13.51
2019-03-09T10:17:50.066Z,13.54
2019-03-09T10:18:55.335Z,13.56
2019-03-09T10:20:00.341Z,13.59
2019-03-09T10:21:05.459Z,13.64
2019-03-09T10:22:10.528Z,13.67
2019-03-09T10:23:15.572Z,13.71
2019-03-09T10:24:20.659Z,13.74
2019-03-09T10:25:25.839Z,13.77
2019-03-09T10:26:30.831Z,13.79
2019-03-09T10:27:35.893Z,13.79
2019-03-09T10:28:41.606Z,13.79
2019-03-09T10:29:46.666Z,13.81
2019-03-09T10:30:51.713Z,13.84
2019-03-09T10:31:57.145Z,13.85
2019-03-09T10:33:02.221Z,13.86
2019-03-09T10:34:07.318Z,13.86
2019-03-09T10:35:12.768Z,13.88
2019-03-09T10:36:17.727Z,13.89
2019-03-09T10:37:22.902Z,13.90
2019-03-09T10:38:28.223Z,13.88
2019-03-09T10:39:33.479Z,13.86
2019-03-09T10:40:38.725Z,13.86
2019-03-09T10:41:43.784Z,13.86
2019-03-09T10:42:48.920Z,13.86
2019-03-09T10:43:54.014Z,13.88
2019-03-09T10:44:59.159Z,13.90
2019-03-09T10:46:04.582Z,13.92
2019-03-09T10:47:09.608Z,13.94
2019-03-09T10:48:14.898Z,13.96
2019-03-09T10:49:19.961Z,13.98
2019-03-09T10:50:26.109Z,13.99
2019-03-09T10:51:31.344Z,13.97
2019-03-09T10:52:37.125Z,13.99
2019-03-09T10:53:42.294Z,13.99
2019-03-09T10:54:47.740Z,14.00
2019-03-09T10:55:55.917Z,14.02
2019-03-09T10:57:01.138Z,14.04
2019-03-09T10:58:06.250Z,14.07
2019-03-09T10:59:11.466Z,14.10
2019-03-09T11:00:28.348Z,14.12
2019-03-09T11:01:33.568Z,14.13
2019-03-09T11:02:38.617Z,14.16
2019-03-09T11:03:43.729Z,14.16
2019-03-09T11:04:48.941Z,14.14
2019-03-09T11:05:54.148Z,14.14
2019-03-09T11:06:59.053Z,14.15
2019-03-09T11:08:04.728Z,14.18
2019-03-09T11:09:09.815Z,14.18
2019-03-09T11:10:15.108Z,14.19
2019-03-09T11:11:20.211Z,14.23
2019-03-09T11:12:25.318Z,14.28
2019-03-09T11:13:30.620Z,14.30
2019-03-09T11:14:35.726Z,14.34
2019-03-09T11:15:40.930Z,14.36
2019-03-09T11:16:45.991Z,14.36
2019-03-09T11:17:51.026Z,14.35
2019-03-09T11:18:56.090Z,14.35
2019-03-09T11:20:01.461Z,14.36
2019-03-09T11:21:06.778Z,14.37
2019-03-09T11:22:11.932Z,14.37
2019-03-09T11:23:17.034Z,14.40
2019-03-09T11:24:22.142Z,14.42
2019-03-09T11:25:27.421Z,14.43
2019-03-09T11:26:32.507Z,14.42
2019-03-09T11:27:37.742Z,14.41
2019-03-09T11:28:43.128Z,14.40
2019-03-09T11:29:48.438Z,14.40
2019-03-09T11:30:53.583Z,14.37
2019-03-09T11:31:58.882Z,14.36
2019-03-09T11:33:05.875Z,14.35
2019-03-09T11:34:10.799Z,14.35
2019-03-09T11:35:16.011Z,14.36
2019-03-09T11:36:21.116Z,14.34
2019-03-09T11:37:26.791Z,14.28
2019-03-09T11:38:31.940Z,14.25
2019-03-09T11:39:37.451Z,14.25
2019-03-09T11:40:42.641Z,14.25
2019-03-09T11:41:47.779Z,14.29
2019-03-09T11:42:53.185Z,14.32
2019-03-09T11:43:58.339Z,14.36
2019-03-09T11:45:03.601Z,14.40
2019-03-09T11:46:08.778Z,14.42
2019-03-09T11:47:13.836Z,14.42
2019-03-09T11:48:18.885Z,14.42
2019-03-09T11:49:24.057Z,14.41
2019-03-09T11:50:29.543Z,14.43
2019-03-09T11:51:34.619Z,14.44
2019-03-09T11:52:39.836Z,14.45
2019-03-09T11:53:45.205Z,14.44
2019-03-09T11:54:50.552Z,14.45
2019-03-09T11:55:55.538Z,14.48
2019-03-09T11:57:00.496Z,14.50
2019-03-09T11:58:05.645Z,14.51
2019-03-09T11:59:10.912Z,14.53
2019-03-09T12:00:19.520Z,14.56
2019-03-09T12:01:24.515Z,14.57
2019-03-09T12:02:38.527Z,14.59
2019-03-09T12:03:36.322Z,14.58
2019-03-09T12:04:46.598Z,14.58
2019-03-09T12:05:48.304Z,14.55
2019-03-09T12:06:53.473Z,14.53
2019-03-09T12:07:58.591Z,14.53
2019-03-09T12:09:05.499Z,14.53
2019-03-09T12:10:10.809Z,14.53
2019-03-09T12:11:15.886Z,14.53
2019-03-09T12:12:21.138Z,14.57
2019-03-09T12:13:26.144Z,14.63
2019-03-09T12:14:31.309Z,14.70
2019-03-09T12:15:36.467Z,14.80
2019-03-09T12:16:41.512Z,14.89
2019-03-09T12:17:46.624Z,14.93
2019-03-09T12:18:51.620Z,14.96
2019-03-09T12:20:02.701Z,15.01
2019-03-09T12:21:08.158Z,15.04
2019-03-09T12:22:13.398Z,15.09
2019-03-09T12:23:23.085Z,15.13
2019-03-09T12:24:28.161Z,15.17
2019-03-09T12:25:33.220Z,15.15
2019-03-09T12:26:38.217Z,15.11
2019-03-09T12:27:43.350Z,15.05
2019-03-09T12:28:48.686Z,15.05
2019-03-09T12:29:53.715Z,15.04
2019-03-09T12:31:01.565Z,15.00
2019-03-09T12:32:06.669Z,15.00
2019-03-09T12:33:11.767Z,15.02
2019-03-09T12:34:16.749Z,15.01
2019-03-09T12:35:21.910Z,15.04
2019-03-09T12:36:26.985Z,15.05
2019-03-09T12:37:32.103Z,15.06
2019-03-09T12:38:37.357Z,15.04
2019-03-09T12:39:42.419Z,15.01
2019-03-09T12:40:47.842Z,14.97
2019-03-09T12:41:52.907Z,14.95
2019-03-09T12:42:57.982Z,14.94
2019-03-09T12:44:03.130Z,14.96
2019-03-09T12:45:09.254Z,14.97
2019-03-09T12:46:14.585Z,14.95
2019-03-09T12:47:19.645Z,14.93
2019-03-09T12:48:24.777Z,14.93
2019-03-09T12:49:29.968Z,14.91
2019-03-09T12:50:35.157Z,14.88
2019-03-09T12:51:40.220Z,14.89
2019-03-09T12:52:45.520Z,14.90
2019-03-09T12:53:51.355Z,14.91
2019-03-09T12:54:56.528Z,14.92
2019-03-09T12:56:01.537Z,14.93
2019-03-09T12:57:06.659Z,14.93
2019-03-09T12:58:12.014Z,14.93
2019-03-09T12:59:17.486Z,14.94
2019-03-09T13:00:22.606Z,14.95
2019-03-09T13:01:27.767Z,14.94
2019-03-09T13:02:32.746Z,14.91
2019-03-09T13:03:37.976Z,14.89
2019-03-09T13:04:43.191Z,14.88
2019-03-09T13:05:48.506Z,14.89
2019-03-09T13:06:53.645Z,14.88
2019-03-09T13:07:58.770Z,14.85
2019-03-09T13:09:04.901Z,14.77
2019-03-09T13:10:10.399Z,14.70
2019-03-09T13:11:15.454Z,14.63
2019-03-09T13:12:20.581Z,14.62
2019-03-09T13:13:25.686Z,14.61
2019-03-09T13:14:31.370Z,14.61
2019-03-09T13:15:36.476Z,14.61
2019-03-09T13:16:41.560Z,14.65
2019-03-09T13:17:46.983Z,14.69
2019-03-09T13:18:52.378Z,14.69
2019-03-09T13:19:57.495Z,14.72
2019-03-09T13:21:03.168Z,14.72
2019-03-09T13:22:08.407Z,14.70
2019-03-09T13:23:13.571Z,14.67
2019-03-09T13:24:19.107Z,14.65
2019-03-09T13:25:24.348Z,14.65
2019-03-09T13:26:29.750Z,14.65
2019-03-09T13:27:34.931Z,14.65
2019-03-09T13:28:40.051Z,14.62
2019-03-09T13:29:45.237Z,14.62
2019-03-09T13:30:50.798Z,14.59
2019-03-09T13:31:55.824Z,14.59
2019-03-09T13:33:01.002Z,14.58
2019-03-09T13:34:06.365Z,14.53
2019-03-09T13:35:11.566Z,14.44
2019-03-09T13:36:16.754Z,14.30
2019-03-09T13:37:21.860Z,14.10
2019-03-09T13:38:27.000Z,13.96
2019-03-09T13:39:32.081Z,13.83
2019-03-09T13:40:37.258Z,13.73
2019-03-09T13:41:42.428Z,13.66
2019-03-09T13:42:47.489Z,13.64
2019-03-09T13:43:52.610Z,13.67
2019-03-09T13:44:57.642Z,13.71
2019-03-09T13:46:03.030Z,13.75
2019-03-09T13:47:08.108Z,13.83
2019-03-09T13:48:13.487Z,13.89
2019-03-09T13:49:18.648Z,13.92
2019-03-09T13:50:24.072Z,13.95
2019-03-09T13:51:29.187Z,13.97
2019-03-09T13:52:34.531Z,13.97
2019-03-09T13:53:39.650Z,13.97
2019-03-09T13:54:45.034Z,13.97
2019-03-09T13:55:52.102Z,13.94
2019-03-09T13:56:57.263Z,13.90
2019-03-09T13:58:02.404Z,13.82
2019-03-09T13:59:07.519Z,13.75
2019-03-09T14:00:13.909Z,13.68
2019-03-09T14:01:18.934Z,13.59
2019-03-09T14:02:24.042Z,13.48
2019-03-09T14:03:29.192Z,13.37
2019-03-09T14:04:34.711Z,13.26
2019-03-09T14:05:39.861Z,13.16
2019-03-09T14:06:45.174Z,13.05
2019-03-09T14:07:50.283Z,13.00
2019-03-09T14:08:55.615Z,12.94